Airfield :
LOGIN :

Register | Disclaimer

   EN    FR    IT 

 










Legend :    VFR   Marginal VFR   IFR   Intensive IFR   Very Intensive IFR
Visi :
Ceiling :
>= 8 km
>= 3000ft
5 to 8 km
1000 to 3000 ft
1500m to 5 km
500 to 1000 ft
800 to 1500m
200 to 500 ft
< 800m
< 200 ft
Symbols :   Thunderstorms  Fog  Heavy snow  Heavy precipitations  Wind > 20 kt
SIGMETs :     Misc.  Thunderstorms  Icing  Turbulence  Mountain Waves  Volcanic Ashes







- Airport Elevation : 459 ft
- IATA code : CER
- Download approach charts


LFRC - Cherbourg / Maupertus

CURRENT METAR :
  • 240830Z AUTO 22011KT 6000 OVC005 15/15 Q1018 TEMPO 23015G25KT 3000 RADZ

EXPIRED METARs :
  • 240800Z AUTO 22012KT 3600 BR OVC005 15/15 Q1018 TEMPO 24015G25KT RADZ
  • 240730Z AUTO 22011KT 200V260 6000 OVC006 15/14 Q1018 TEMPO 24015G25KT 4000 RADZ
  • 240700Z AUTO 22013KT 9999 OVC008 15/14 Q1018 TEMPO 24015G25KT 4000 RADZ
  • 240630Z AUTO 22011KT 9999 BKN012 BKN017 OVC026 16/13 Q1018 TEMPO 24015G25KT 4000 RADZ BKN008
  • 240600Z AUTO 23012KT 9999 BKN016 OVC054 16/13 Q1018 TEMPO 24015G25KT 4000 RADZ BKN008

Expired Forecast.
No reported NOTAMs for that airfield.



MET'MAP, your aeronautical weather chart ! - Copyright ORBIFLY December 2007 - Disclaimer

ORBIFLY MET'MAP TEAM :

Programming & Development : Alexandra Zaïnal
Concept & Development : Baudouin d'Aumeries
Co-Development & Prog : Marc-Olivier Méhu
Technical & hardware support : Manuel Goepfert

Contact : metmap@orbifly.com




SOURCES & CREDITS :

   NOAA